Data for 07/19/2015

Time Sea-Level Adjusted Pressure Absolute Pressure Temperature Relative Humidity Dew Point   
(mb) (inHg) (mb) (inHg) (C) (F) (%) (C) (F)
00:05 1021 30.15 851 25.13 12.3 54.1 58 4.4 39.9
00:10 1021 30.15 851 25.13 12.1 53.9 58 4.3 39.7
00:15 1021 30.15 851 25.13 12.2 54 58 4.2 39.5
00:20 1021 30.15 851 25.13 12.5 54.5 56 4.1 39.3
00:25 1021 30.15 851 25.13 12.9 55.2 54 3.9 39
00:30 1021 30.15 851 25.13 13.2 55.8 56 4.6 40.3
00:35 1021 30.15 851 25.13 13.1 55.6 57 4.8 40.6
00:40 1021 30.15 851 25.13 12.9 55.3 58 4.8 40.7
00:45 1021 30.15 851 25.13 12.8 55.1 58 4.8 40.6
00:50 1021 30.15 850 25.1 12.7 54.8 59 4.8 40.7
00:55 1021 30.15 850 25.1 12.6 54.7 59 4.8 40.7
01:00 1021 30.15 850 25.1 12.4 54.4 60 4.9 40.9
01:05 1021 30.15 851 25.13 12.2 53.9 60 4.8 40.6
01:10 1021 30.15 851 25.13 12.2 53.9 60 4.7 40.4
01:15 1021 30.15 851 25.13 12 53.5 61 4.6 40.3
01:20 1021 30.15 850 25.1 11.6 53 62 4.7 40.4
01:25 1021 30.15 850 25.1 11.4 52.6 62 4.4 40
01:30 1021 30.15 850 25.1 11.4 52.4 63 4.5 40.1
01:35 1021 30.15 851 25.13 11.2 52.2 63 4.5 40.1
01:40 1021 30.15 851 25.13 11.3 52.3 62 4.3 39.7
01:45 1021 30.15 851 25.13 11.6 52.8 60 4.2 39.5
01:50 1021 30.15 851 25.13 11.7 53 61 4.4 40
01:55 1021 30.15 851 25.13 11.6 52.8 61 4.5 40
02:00 1021 30.15 851 25.13 11.5 52.7 61 4.3 39.7
02:05 1021 30.15 851 25.13 11.5 52.7 62 4.5 40
02:10 1021 30.15 851 25.13 11.3 52.4 62 4.4 39.9
02:15 1021 30.15 851 25.13 11.5 52.6 61 4.3 39.7
02:20 1021 30.15 851 25.13 11.8 53.2 60 4.2 39.6
02:25 1021 30.15 851 25.13 12.1 53.8 58 4.2 39.5
02:30 1021 30.15 851 25.13 12.4 54.2 58 4.4 40
02:35 1021 30.15 851 25.13 12.3 54.1 59 4.6 40.3
02:40 1021 30.15 851 25.13 11.8 53.3 62 4.9 40.8
02:45 1021 30.15 851 25.13 11.4 52.6 63 4.6 40.2
02:50 1021 30.15 851 25.13 11.5 52.8 62 4.6 40.3
02:55 1022 30.18 851 25.13 11.6 52.8 63 4.7 40.5
03:00 1022 30.18 851 25.13 11.2 52.1 65 4.9 40.8
03:05 1022 30.18 851 25.13 10.9 51.5 66 4.8 40.7
03:10 1022 30.18 851 25.13 10.6 51.1 67 4.7 40.5
03:15 1022 30.18 851 25.13 10.5 51 68 4.8 40.7
03:20 1022 30.18 851 25.13 10.3 50.6 68 4.7 40.4
03:25 1022 30.18 851 25.13 10 50.1 69 4.7 40.4
03:30 1022 30.18 851 25.13 9.8 49.7 69 4.4 40
03:35 1022 30.18 851 25.13 9.8 49.7 69 4.5 40.1
03:40 1022 30.18 851 25.13 9.9 49.8 68 4.3 39.7
03:45 1022 30.18 851 25.13 10.1 50.2 67 4.2 39.6
03:50 1022 30.18 851 25.13 10.2 50.3 68 4.5 40.2
03:55 1022 30.18 851 25.13 10.2 50.4 67 4.4 40
04:00 1022 30.18 851 25.13 10.3 50.5 67 4.4 39.9
04:05 1022 30.18 851 25.13 10.4 50.7 65 4.2 39.6
04:10 1022 30.18 851 25.13 10.5 50.8 66 4.4 39.9
04:15 1022 30.18 851 25.13 10.2 50.3 68 4.6 40.2
04:20 1022 30.18 851 25.13 10.5 50.9 65 4.3 39.7
04:25 1022 30.18 851 25.13 10.6 51.1 65 4.3 39.7
04:30 1022 30.18 851 25.13 10.4 50.7 66 4.4 39.8
04:35 1022 30.18 851 25.13 9.9 49.9 68 4.4 39.9
04:40 1022 30.18 851 25.13 10 49.9 68 4.3 39.8
04:45 1022 30.18 851 25.13 10 49.9 68 4.3 39.7
04:50 1022 30.18 851 25.13 10 50 67 4.2 39.6
04:55 1022 30.18 851 25.13 9.9 49.9 68 4.4 39.9
05:00 1022 30.18 851 25.13 9.7 49.4 69 4.4 39.8
05:05 1022 30.18 851 25.13 9.5 49.1 70 4.4 39.9
05:10 1022 30.18 851 25.13 9.4 48.9 70 4.3 39.7
05:15 1022 30.18 851 25.13 9.3 48.7 71 4.3 39.7
05:20 1022 30.18 851 25.13 9.3 48.8 70 4.2 39.6
05:25 1022 30.18 851 25.13 9.4 48.9 70 4.2 39.6
05:30 1022 30.18 851 25.13 9.5 49 69 4.2 39.5
05:35 1022 30.18 851 25.13 9.8 49.6 68 4.1 39.4
05:40 1022 30.18 851 25.13 10.5 50.9 64 4.1 39.4
05:45 1022 30.18 851 25.13 11 51.7 63 4.3 39.7
05:50 1022 30.18 851 25.13 11.2 52.2 63 4.4 40
05:55 1022 30.18 851 25.13 11.1 52.1 64 4.7 40.4
06:00 1022 30.18 851 25.13 11 51.8 64 4.5 40.1
06:05 1022 30.18 851 25.13 10.9 51.6 66 4.9 40.9
06:10 1022 30.18 851 25.13 10.7 51.3 66 4.8 40.6
06:15 1022 30.18 851 25.13 10.8 51.5 66 4.8 40.6
06:20 1022 30.18 851 25.13 11.2 52.2 65 5 41.1
06:25 1022 30.18 851 25.13 11.9 53.4 62 5 41
06:30 1022 30.18 852 25.16 12.4 54.3 62 5.4 41.7
06:35 1022 30.18 852 25.16 12.8 55.1 62 5.7 42.2
06:40 1022 30.18 852 25.16 13 55.4 62 5.9 42.6
06:45 1022 30.18 852 25.16 13.4 56 61 6 42.8
06:50 1022 30.18 852 25.16 14 57.2 58 6 42.8
06:55 1022 30.18 852 25.16 14.5 58.1 58 6.5 43.6
07:00 1022 30.18 852 25.16 14.8 58.6 56 6.1 42.9
07:05 1022 30.18 852 25.16 15.1 59.2 54 6.1 42.9
07:10 1023 30.21 852 25.16 15.6 60.1 52 6 42.8
07:15 1023 30.21 852 25.16 15.6 60.1 52 5.9 42.6
07:20 1023 30.21 852 25.16 15.8 60.4 50 5.4 41.7
07:25 1023 30.21 852 25.16 16.5 61.6 48 5.6 42
07:30 1023 30.21 852 25.16 16.8 62.2 46 5.3 41.5
07:35 1023 30.21 852 25.16 17.4 63.4 45 5.6 42.2
07:40 1023 30.21 852 25.16 17.3 63.1 45 5.3 41.6
07:45 1023 30.21 852 25.16 17.3 63.2 45 5.5 41.9
07:50 1023 30.21 852 25.16 17.6 63.7 45 5.6 42.1
07:55 1023 30.21 852 25.16 18.1 64.7 43 5.3 41.6
08:00 1023 30.21 852 25.16 18.3 64.9 43 5.6 42
08:05 1023 30.21 852 25.16 18.2 64.8 41 5 41
08:10 1023 30.21 852 25.16 18.6 65.6 40 4.9 40.8
08:15 1023 30.21 852 25.16 18.7 65.7 39 4.8 40.6
08:20 1023 30.21 852 25.16 18.8 65.8 42 5.7 42.2
08:25 1023 30.21 852 25.16 18.4 65.1 42 5.4 41.6
08:30 1023 30.21 852 25.16 18.3 65 42 5.2 41.4
08:35 1023 30.21 852 25.16 19.1 66.5 38 4.8 40.6
08:40 1023 30.21 852 25.16 20 67.9 36 4.5 40.1
08:45 1023 30.21 852 25.16 20.7 69.2 34 4.6 40.2
08:50 1023 30.21 852 25.16 20.9 69.7 34 4.7 40.5
08:55 1023 30.21 852 25.16 21.2 70.2 33 4.6 40.3
09:00 1023 30.21 852 25.16 21.4 70.5 34 4.9 40.9
09:05 1023 30.21 852 25.16 21 69.9 35 5.3 41.6
09:10 1023 30.21 852 25.16 21.7 71 34 5.4 41.8
09:15 1023 30.21 852 25.16 22 71.5 33 5 41
09:20 1023 30.21 852 25.16 21.8 71.2 34 5.3 41.5
09:25 1023 30.21 852 25.16 21.9 71.3 33 5.3 41.5
09:30 1023 30.21 852 25.16 22 71.7 33 5.1 41.3
09:35 1023 30.21 852 25.16 22.3 72.2 33 5.5 41.9
09:40 1023 30.21 852 25.16 22.4 72.4 32 5.2 41.4
09:45 1023 30.21 852 25.16 23.2 73.8 31 5.5 41.9
09:50 1023 30.21 852 25.16 23.1 73.7 31 5.4 41.8
09:55 1023 30.21 852 25.16 23 73.3 26 2.8 37.1
10:00 1023 30.21 852 25.16 23.4 74.2 26 3.1 37.6
10:05 1023 30.21 852 25.16 23.3 73.9 30 4.7 40.5
10:10 1023 30.21 852 25.16 23.2 73.8 28 3.9 39
10:15 1023 30.21 852 25.16 23.3 74 26 3.2 37.7
10:20 1023 30.21 852 25.16 23.4 74.1 26 3.1 37.6
10:25 1023 30.21 852 25.16 23.4 74.1 26 2.9 37.3
10:30 1023 30.21 852 25.16 23.6 74.4 26 3.1 37.6
10:35 1023 30.21 852 25.16 23.4 74.1 27 3.5 38.3
10:40 1023 30.21 852 25.16 23.5 74.3 25 2.8 37
10:45 1023 30.21 852 25.16 23.9 75.1 25 2.9 37.3
10:50 1023 30.21 852 25.16 23.6 74.5 26 3.3 38
10:55 1023 30.21 852 25.16 23.2 73.8 26 3 37.5
11:00 1023 30.21 852 25.16 23.1 73.6 27 3.2 37.7
11:05 1023 30.21 852 25.16 23.7 74.7 26 3.1 37.6
11:10 1023 30.21 852 25.16 24 75.1 24 2.5 36.6
11:15 1023 30.21 852 25.16 24.3 75.8 24 2.7 36.8
11:20 1023 30.21 852 25.16 24.6 76.3 23 2.5 36.5
11:25 1023 30.21 852 25.16 24.1 75.4 23 2 35.5
11:30 1022 30.18 852 25.16 24.6 76.2 23 2.4 36.4
11:35 1022 30.18 852 25.16 24.6 76.3 24 2.7 36.9
11:40 1022 30.18 852 25.16 24.1 75.4 24 2.7 36.8
11:45 1022 30.18 852 25.16 24.2 75.5 24 2.6 36.6
11:50 1022 30.18 852 25.16 24.9 76.9 24 3.2 37.7
11:55 1022 30.18 852 25.16 24.6 76.3 23 2.5 36.5
12:00 1022 30.18 852 25.16 24.1 75.4 23 1.9 35.5
12:05 1023 30.21 852 25.16 24.7 76.5 23 2.2 35.9
12:10 1023 30.21 852 25.16 25.4 77.7 22 2.7 36.8
12:15 1022 30.18 852 25.16 25.2 77.4 22 2.2 36
12:20 1022 30.18 852 25.16 25.2 77.4 22 2.2 35.9
12:25 1023 30.21 852 25.16 25.7 78.3 22 2.4 36.3
12:30 1022 30.18 852 25.16 25.8 78.4 20 1.7 35
12:35 1022 30.18 852 25.16 26.3 79.3 20 1.8 35.2
12:40 1022 30.18 852 25.16 25.8 78.4 21 2.2 36
12:45 1022 30.18 852 25.16 25.8 78.4 21 2.2 35.9
12:50 1022 30.18 852 25.16 26 78.8 22 2.6 36.7
12:55 1022 30.18 852 25.16 25.6 78.1 22 2.7 36.8
13:00 1022 30.18 851 25.13 25.3 77.5 22 2 35.6
13:05 1022 30.18 851 25.13 24.5 76 23 2.1 35.7
13:10 1022 30.18 851 25.13 24.4 75.9 23 2.3 36.1
13:15 1022 30.18 851 25.13 25.6 78 22 2.5 36.4
13:20 1022 30.18 851 25.13 25.8 78.4 20 1.7 35.1
13:25 1022 30.18 851 25.13 25.5 77.9 21 1.6 34.9
13:30 1022 30.18 851 25.13 25 77 21 1.3 34.3
13:35 1022 30.18 851 25.13 25.5 77.9 20 1 33.9
13:40 1022 30.18 851 25.13 24.9 76.8 21 1.4 34.6
13:45 1022 30.18 851 25.13 25.6 78.1 21 2 35.6
13:50 1022 30.18 851 25.13 26 78.7 21 2 35.6
13:55 1022 30.18 851 25.13 26.4 79.5 19 1.5 34.7
14:00 1022 30.18 851 25.13 26.6 79.8 19 1.4 34.6
14:05 1022 30.18 851 25.13 25.8 78.4 21 2 35.6
14:10 1022 30.18 851 25.13 26.2 79.1 21 2.4 36.3
14:15 1022 30.18 851 25.13 26.2 79.1 20 1.7 35
14:20 1022 30.18 851 25.13 26 78.8 20 1.3 34.4
14:25 1022 30.18 851 25.13 27.1 80.8 20 2.3 36.1
14:30 1022 30.18 851 25.13 27.3 81.1 19 2.2 35.9
14:35 1022 30.18 851 25.13 26.5 79.7 20 2.2 36
14:40 1022 30.18 851 25.13 25.3 77.5 21 1.7 35
14:45 1022 30.18 851 25.13 25.7 78.3 19 0.9 33.6
14:50 1022 30.18 851 25.13 26.5 79.8 21 2.4 36.3
14:55 1022 30.18 851 25.13 27.3 81.1 20 2.5 36.5
15:00 1022 30.18 851 25.13 27.6 81.6 18 1.4 34.6
15:05 1022 30.18 851 25.13 27.5 81.5 18 1.6 34.9
15:10 1022 30.18 851 25.13 27.8 82 19 2 35.7
15:15 1022 30.18 851 25.13 27.3 81.2 20 2.6 36.8
15:20 1022 30.18 851 25.13 27 80.7 19 1.4 34.6
15:25 1022 30.18 851 25.13 26.7 80 19 1.7 35.1
15:30 1022 30.18 851 25.13 26.5 79.8 20 1.9 35.4
15:35 1022 30.18 851 25.13 27.2 81 19 1.8 35.3
15:40 1022 30.18 851 25.13 27 80.6 19 1.4 34.4
15:45 1022 30.18 851 25.13 27 80.5 18 1.2 34.2
15:50 1022 30.18 851 25.13 26.8 80.2 19 1.7 35
15:55 1022 30.18 851 25.13 27.3 81.1 18 1.5 34.7
16:00 1022 30.18 851 25.13 27.5 81.5 19 2 35.6
16:05 1022 30.18 851 25.13 27.8 82 18 1.6 34.8
16:10 1022 30.18 851 25.13 26.9 80.3 19 1.9 35.4
16:15 1022 30.18 851 25.13 27.1 80.9 18 1.1 34
16:20 1022 30.18 851 25.13 27.8 82 17 1.2 34.1
16:25 1022 30.18 851 25.13 27.6 81.6 19 2.2 36
16:30 1022 30.18 851 25.13 27.6 81.6 19 2 35.6
16:35 1022 30.18 851 25.13 27.4 81.3 19 2.4 36.2
16:40 1022 30.18 851 25.13 27.4 81.3 19 1.7 35.1
16:45 1022 30.18 851 25.13 27.3 81.2 19 2.1 35.8
16:50 1022 30.18 851 25.13 27.2 80.9 19 2 35.6
16:55 1022 30.18 851 25.13 26.7 80.1 20 2.4 36.4
17:00 1021 30.15 851 25.13 26.5 79.7 19 1.5 34.7
17:05 1021 30.15 851 25.13 27 80.6 18 1.3 34.4
17:10 1021 30.15 851 25.13 27 80.6 18 1.1 34
17:15 1021 30.15 851 25.13 27 80.6 20 2.4 36.3
17:20 1021 30.15 851 25.13 27.2 80.9 19 1.7 35.1
17:25 1021 30.15 850 25.1 27.3 81.2 19 1.9 35.5
17:30 1021 30.15 850 25.1 27 80.6 19 1.5 34.7
17:35 1021 30.15 850 25.1 26.9 80.5 19 1.7 35.1
17:40 1021 30.15 850 25.1 27.4 81.3 19 1.9 35.5
17:45 1021 30.15 850 25.1 26.9 80.4 19 1.4 34.5
17:50 1021 30.15 850 25.1 27.2 80.9 18 1.4 34.5
17:55 1021 30.15 850 25.1 27.2 81 18 1.5 34.7
18:00 1021 30.15 850 25.1 27.2 80.9 20 2.4 36.3
18:05 1021 30.15 851 25.13 26.9 80.5 19 1.7 35.1
18:10 1021 30.15 851 25.13 26.8 80.3 19 1.4 34.5
18:15 1021 30.15 850 25.1 27.1 80.7 21 2.9 37.2
18:20 1021 30.15 850 25.1 27 80.6 19 1.8 35.2
18:25 1021 30.15 850 25.1 26.9 80.4 20 2.5 36.5
18:30 1021 30.15 850 25.1 26.8 80.2 20 2.1 35.8
18:35 1021 30.15 850 25.1 26.8 80.2 20 1.9 35.5
18:40 1021 30.15 850 25.1 26.7 80.1 20 2.1 35.8
18:45 1021 30.15 850 25.1 26.7 80.1 21 2.8 37
18:50 1021 30.15 850 25.1 26.2 79.2 22 3.3 38
18:55 1021 30.15 850 25.1 25.8 78.4 25 4.6 40.3
19:00 1021 30.15 850 25.1 25.4 77.8 23 3.1 37.6
19:05 1021 30.15 850 25.1 25.3 77.5 24 3.2 37.8
19:10 1021 30.15 850 25.1 25.1 77.1 25 3.9 39
19:15 1021 30.15 850 25.1 25.1 77.1 26 4.7 40.4
19:20 1021 30.15 850 25.1 25.1 77.1 25 3.6 38.5
19:25 1021 30.15 850 25.1 25 77 26 4.3 39.7
19:30 1021 30.15 850 25.1 25 76.9 25 3.9 39
19:35 1021 30.15 850 25.1 24.7 76.5 27 4.7 40.4
19:40 1021 30.15 850 25.1 24.4 76 29 5.6 42.1
19:45 1021 30.15 850 25.1 24.2 75.6 31 6.3 43.3
19:50 1021 30.15 850 25.1 24 75.2 34 7.2 45
19:55 1021 30.15 850 25.1 23.7 74.7 34 7.2 44.9
20:00 1021 30.15 850 25.1 23.6 74.5 34 7.1 44.7
20:05 1021 30.15 850 25.1 23.5 74.4 32 6 42.7
20:10 1021 30.15 850 25.1 23.3 74 36 7.7 45.8
20:15 1021 30.15 851 25.13 23 73.3 36 7.3 45.2
20:20 1021 30.15 851 25.13 22.5 72.5 37 7.4 45.4
20:25 1021 30.15 851 25.13 22.2 71.9 37 6.9 44.4
20:30 1021 30.15 851 25.13 21.8 71.3 39 7.3 45.1
20:35 1022 30.18 851 25.13 21.6 70.8 39 7.1 44.8
20:40 1022 30.18 851 25.13 21.5 70.7 37 6.2 43.2
20:45 1022 30.18 851 25.13 21 69.9 45 8.7 47.6
20:50 1022 30.18 851 25.13 20.5 68.9 40 6.7 44
20:55 1022 30.18 851 25.13 20.2 68.3 37 5.2 41.3
21:00 1022 30.18 851 25.13 20.3 68.5 36 4.8 40.7
21:05 1022 30.18 851 25.13 20.7 69.3 33 4.2 39.5
21:10 1022 30.18 851 25.13 20.7 69.3 35 4.8 40.6
21:15 1022 30.18 851 25.13 20.4 68.8 35 4.7 40.5
21:20 1022 30.18 851 25.13 20.2 68.4 36 4.7 40.5
21:25 1022 30.18 851 25.13 20.1 68.1 37 5.3 41.5
21:30 1022 30.18 851 25.13 19.9 67.8 37 4.9 40.8
21:35 1022 30.18 851 25.13 19.8 67.7 37 5 41
21:40 1022 30.18 851 25.13 19.9 67.8 36 4.7 40.5
21:45 1022 30.18 851 25.13 19.9 67.8 38 5.3 41.5
21:50 1022 30.18 851 25.13 19.9 67.8 35 4.3 39.8
21:55 1022 30.18 851 25.13 19.9 67.9 37 4.8 40.7
22:00 1022 30.18 851 25.13 19.8 67.6 40 5.8 42.5
22:05 1022 30.18 851 25.13 19.8 67.7 37 4.7 40.5
22:10 1022 30.18 851 25.13 19.8 67.6 35 4.2 39.6
22:15 1022 30.18 851 25.13 19.9 67.7 34 3.6 38.5
22:20 1022 30.18 851 25.13 20.1 68.2 34 3.9 39.1
22:25 1022 30.18 851 25.13 20.5 68.8 34 4.2 39.6
22:30 1022 30.18 851 25.13 20.5 68.9 35 4.9 40.8
22:35 1022 30.18 851 25.13 20.4 68.8 36 5.2 41.3
22:40 1022 30.18 851 25.13 20.3 68.6 36 5.1 41.1
22:45 1022 30.18 851 25.13 20.3 68.5 37 5.2 41.3
22:50 1022 30.18 851 25.13 20.4 68.7 36 4.9 40.8
22:55 1022 30.18 851 25.13 20.6 69 35 4.9 40.8
23:00 1022 30.18 851 25.13 20.6 69 35 4.9 40.9
23:05 1022 30.18 851 25.13 20.5 68.8 36 5.2 41.4
23:10 1022 30.18 851 25.13 20.4 68.8 36 5.2 41.4
23:15 1022 30.18 851 25.13 20.4 68.8 36 5.1 41.1
23:20 1022 30.18 851 25.13 20.4 68.7 36 5 41
23:25 1022 30.18 851 25.13 20.3 68.6 37 5.2 41.4
23:30 1022 30.18 851 25.13 20.4 68.7 37 5.3 41.6
23:35 1022 30.18 851 25.13 20.4 68.7 37 5.5 41.8
23:40 1022 30.18 851 25.13 20.4 68.7 37 5.5 41.9
23:45 1022 30.18 851 25.13 20.3 68.6 38 5.6 42.1
23:50 1022 30.18 852 25.16 20.3 68.5 38 5.7 42.3
23:55 1022 30.18 852 25.16 20.2 68.3 38 5.6 42.1
24:00 1022 30.18 852 25.16 20.1 68.2 38 5.6 42.1